Time;durP1;ratioP1;P1;durP2;ratioP2;P2;SDS_P1;SDS_P2;PMS_P1;PMS_P2;Temp;Humidity;BMP_temperature;BMP_pressure;BME280_temperature;BME280_humidity;BME280_pressure;Samples;Min_cycle;Max_cycle;Signal;HPM_P1;HPM_P2
2022/03/27 00:00:41;;;;;;;11.30;5.87;;;;;;;9.84;46.88;95426.47;5014995;28;20271;-65
2022/03/27 00:03:07;;;;;;;12.40;6.70;;;;;;;9.87;47.56;95429.63;5015011;28;20214;-65
2022/03/27 00:05:33;;;;;;;16.97;5.53;;;;;;;9.62;47.35;95411.91;5032593;28;20202;-62
2022/03/27 00:07:59;;;;;;;11.77;5.67;;;;;;;9.34;48.04;95412.16;5015054;28;20190;-65
2022/03/27 00:10:25;;;;;;;18.53;6.10;;;;;;;8.99;49.41;95403.56;5032488;28;20205;-67
2022/03/27 00:12:50;;;;;;;12.70;6.77;;;;;;;8.97;49.81;95396.06;5014877;28;20170;-62
2022/03/27 00:15:16;;;;;;;15.47;6.57;;;;;;;8.74;50.31;95394.25;5032364;28;20214;-63
2022/03/27 00:17:41;;;;;;;13.90;7.23;;;;;;;8.62;50.98;95399.31;5032603;28;20640;-63
2022/03/27 00:20:08;;;;;;;18.63;6.97;;;;;;;8.84;50.31;95399.53;5032291;28;20197;-61
2022/03/27 00:22:36;;;;;;;14.60;7.33;;;;;;;8.84;49.98;95395.28;5032337;28;20253;-63
2022/03/27 00:25:06;;;;;;;11.70;6.70;;;;;;;8.87;49.89;95396.75;5014644;28;20302;-62
2022/03/27 00:27:32;;;;;;;12.20;6.07;;;;;;;8.88;49.87;95385.72;5014837;28;20182;-62
2022/03/27 00:29:58;;;;;;;11.97;5.97;;;;;;;9.00;50.88;95388.28;5032283;28;20208;-60
2022/03/27 00:32:23;;;;;;;12.43;6.17;;;;;;;8.96;50.83;95386.84;5033142;28;20546;-63
2022/03/27 00:34:49;;;;;;;12.00;6.77;;;;;;;8.82;51.43;95373.47;5032024;28;20203;-62
2022/03/27 00:37:15;;;;;;;14.80;6.80;;;;;;;8.85;50.72;95373.25;5032395;28;20182;-64
2022/03/27 00:39:41;;;;;;;13.80;6.77;;;;;;;8.88;51.22;95375.59;5032197;28;20206;-62
2022/03/27 00:42:13;;;;;;;16.97;6.70;;;;;;;9.00;51.36;95369.69;5014268;28;20194;-62
2022/03/27 00:44:38;;;;;;;10.47;6.20;;;;;;;9.10;50.43;95376.59;5014234;28;20202;-65
2022/03/27 00:47:07;;;;;;;15.13;6.87;;;;;;;9.17;50.29;95360.03;5032299;28;20212;-64
2022/03/27 00:49:34;;;;;;;14.00;6.53;;;;;;;9.27;50.73;95368.63;5014448;28;20206;-61
2022/03/27 00:52:00;;;;;;;17.80;7.00;;;;;;;9.28;50.88;95361.84;5032643;28;20550;-65
2022/03/27 00:54:27;;;;;;;16.60;6.37;;;;;;;9.33;49.90;95369.97;5031760;28;20202;-64
2022/03/27 00:56:52;;;;;;;13.53;6.83;;;;;;;9.39;50.61;95369.53;5014352;28;20670;-61
2022/03/27 00:59:18;;;;;;;18.10;7.40;;;;;;;9.18;50.74;95368.47;5014020;28;20684;-64
2022/03/27 01:01:44;;;;;;;17.60;7.40;;;;;;;8.60;52.05;95338.59;5032118;28;20174;-63
2022/03/27 01:04:10;;;;;;;15.13;6.30;;;;;;;8.46;52.28;95341.22;5013778;28;20282;-63
2022/03/27 01:06:43;;;;;;;11.70;6.57;;;;;;;8.47;53.42;95337.75;5014106;28;20262;-64
2022/03/27 01:12:11;;;;;;;11.93;6.67;;;;;;;8.50;54.45;95331.69;5032227;28;20264;-61
2022/03/27 01:14:36;;;;;;;14.33;6.90;;;;;;;8.48;54.92;95336.88;5031727;28;20209;-61
2022/03/27 01:17:08;;;;;;;13.73;6.77;;;;;;;8.76;52.80;95341.72;5031538;28;20572;-61
2022/03/27 01:19:35;;;;;;;10.83;5.87;;;;;;;8.88;51.91;95355.31;5031537;28;20197;-63
2022/03/27 01:22:01;;;;;;;16.50;6.00;;;;;;;8.66;51.87;95347.50;5031835;28;20269;-62
2022/03/27 01:24:27;;;;;;;10.70;6.20;;;;;;;8.80;51.54;95360.91;4997539;28;20783;-60
2022/03/27 01:26:52;;;;;;;9.87;5.80;;;;;;;8.67;53.07;95352.47;5031307;28;20700;-60
2022/03/27 01:29:18;;;;;;;12.93;5.80;;;;;;;8.45;53.05;95342.13;5031541;28;20190;-60
2022/03/27 01:31:45;;;;;;;12.93;6.20;;;;;;;8.38;53.20;95328.25;5031738;28;20217;-64
2022/03/27 01:34:10;;;;;;;11.10;6.00;;;;;;;7.93;54.70;95324.38;5031307;28;20182;-63
2022/03/27 01:36:36;;;;;;;13.90;6.33;;;;;;;7.89;56.50;95325.50;5031599;28;20715;-63
2022/03/27 01:39:07;;;;;;;8.73;4.87;;;;;;;7.81;57.06;95324.34;5031230;28;20183;-63
2022/03/27 01:41:33;;;;;;;9.67;5.80;;;;;;;8.13;55.67;95339.09;5031607;28;20590;-60
2022/03/27 01:43:59;;;;;;;14.83;5.83;;;;;;;8.22;55.16;95338.50;5031326;28;20189;-61
2022/03/27 01:46:26;;;;;;;10.53;6.27;;;;;;;8.24;54.65;95349.34;5013460;28;20264;-61
2022/03/27 01:48:51;;;;;;;12.00;5.93;;;;;;;8.13;54.85;95354.31;5031313;28;20183;-61
2022/03/27 01:51:17;;;;;;;11.97;6.17;;;;;;;8.01;54.75;95329.78;5034827;28;20206;-63
2022/03/27 01:53:42;;;;;;;13.23;5.77;;;;;;;8.18;54.52;95346.41;5044876;23;20214;-63
2022/03/27 01:56:09;;;;;;;12.00;5.20;;;;;;;8.03;54.21;95348.22;5055056;28;20209;-64
2022/03/27 01:58:39;;;;;;;10.03;5.50;;;;;;;8.12;54.49;95344.28;5055291;28;20281;-61
2022/03/27 02:01:06;;;;;;;10.50;5.93;;;;;;;8.09;54.26;95350.34;5055172;28;20213;-62
2022/03/27 02:03:32;;;;;;;13.13;5.80;;;;;;;8.05;54.44;95336.25;5055094;28;20243;-61
2022/03/27 02:05:57;;;;;;;10.03;5.77;;;;;;;7.98;54.22;95334.22;5055149;28;20675;-62
2022/03/27 02:08:23;;;;;;;9.40;6.13;;;;;;;7.96;54.51;95346.97;5054802;28;20268;-62
2022/03/27 02:10:49;;;;;;;12.17;5.93;;;;;;;8.07;54.74;95344.56;5054990;28;20289;-62
2022/03/27 02:13:18;;;;;;;13.47;6.93;;;;;;;8.01;55.20;95339.06;5053674;28;20205;-62
2022/03/27 02:15:45;;;;;;;14.13;6.30;;;;;;;8.11;54.57;95346.00;5054838;28;20213;-65
2022/03/27 02:18:11;;;;;;;11.50;6.50;;;;;;;8.07;54.15;95349.63;5053349;28;20192;-61
2022/03/27 02:20:37;;;;;;;12.33;6.70;;;;;;;8.12;54.50;95345.06;5054961;28;20213;-62
2022/03/27 02:23:02;;;;;;;12.83;6.23;;;;;;;8.12;54.74;95351.88;5054772;28;20323;-65
2022/03/27 02:25:28;;;;;;;16.40;8.03;;;;;;;8.23;52.99;95352.81;5055000;28;20201;-62
2022/03/27 02:27:53;;;;;;;15.03;8.00;;;;;;;8.19;53.13;95358.97;5053243;28;20644;-62
2022/03/27 02:30:20;;;;;;;13.33;7.37;;;;;;;8.05;54.15;95359.03;5055022;28;20205;-61
2022/03/27 02:32:47;;;;;;;21.10;8.20;;;;;;;7.96;54.29;95352.03;5053327;28;20273;-61
2022/03/27 02:35:13;;;;;;;18.23;7.43;;;;;;;8.07;53.43;95359.75;5054595;28;20209;-63
2022/03/27 02:37:38;;;;;;;13.63;7.80;;;;;;;8.30;52.34;95365.94;5054290;28;20239;-61
2022/03/27 02:40:05;;;;;;;10.87;6.77;;;;;;;8.15;52.02;95367.69;5054012;28;20255;-62
2022/03/27 02:42:30;;;;;;;18.83;8.77;;;;;;;8.26;53.16;95377.94;5054227;28;20186;-61
2022/03/27 02:44:56;;;;;;;18.80;8.03;;;;;;;8.24;52.25;95382.28;5054437;28;20251;-64
2022/03/27 02:47:21;;;;;;;15.37;9.03;;;;;;;8.20;52.21;95372.47;5054230;28;20201;-61
2022/03/27 02:49:47;;;;;;;19.07;7.87;;;;;;;8.26;52.39;95382.22;5052944;28;20259;-64
2022/03/27 02:52:12;;;;;;;18.67;7.30;;;;;;;8.14;53.63;95380.44;5054015;28;20193;-63
2022/03/27 02:54:38;;;;;;;14.67;7.67;;;;;;;8.20;52.50;95378.31;5054280;28;20550;-61
2022/03/27 02:57:04;;;;;;;14.77;7.43;;;;;;;8.23;52.69;95379.84;5054074;28;20174;-64
2022/03/27 02:59:29;;;;;;;16.50;7.83;;;;;;;8.10;53.69;95379.03;5054167;28;20205;-60
2022/03/27 03:01:55;;;;;;;15.47;7.27;;;;;;;8.10;53.86;95377.28;5053519;28;20618;-60
2022/03/27 03:04:20;;;;;;;14.33;7.00;;;;;;;8.21;54.12;95376.59;5054076;28;20257;-61
2022/03/27 03:06:47;;;;;;;11.20;7.10;;;;;;;8.03;53.87;95363.41;5053820;28;20184;-64
2022/03/27 03:09:13;;;;;;;12.90;7.50;;;;;;;8.07;53.77;95377.47;5053791;28;20182;-65
2022/03/27 03:11:38;;;;;;;13.00;7.03;;;;;;;8.10;54.21;95379.03;5053751;28;20181;-60
2022/03/27 03:14:04;;;;;;;15.80;7.40;;;;;;;7.98;53.91;95362.88;5053808;28;20188;-60
2022/03/27 03:16:30;;;;;;;16.23;7.23;;;;;;;7.93;53.73;95376.72;5053625;28;20591;-63
2022/03/27 03:18:55;;;;;;;13.97;7.10;;;;;;;7.87;54.22;95377.94;5052356;28;20169;-65
2022/03/27 03:21:21;;;;;;;15.30;7.13;;;;;;;7.83;54.33;95373.16;5053687;28;20285;-62
2022/03/27 03:23:47;;;;;;;18.73;8.00;;;;;;;7.89;54.20;95371.06;5052187;28;20182;-61
2022/03/27 03:26:13;;;;;;;12.80;7.13;;;;;;;7.89;54.10;95376.13;5035634;28;20210;-62
2022/03/27 03:28:38;;;;;;;21.37;7.73;;;;;;;7.52;55.34;95356.50;5053475;28;20182;-62
2022/03/27 03:31:05;;;;;;;15.10;6.80;;;;;;;7.73;55.25;95361.97;5052059;28;20210;-64
2022/03/27 03:33:31;;;;;;;11.63;6.50;;;;;;;7.49;57.43;95360.03;5053408;28;20192;-63
2022/03/27 03:35:56;;;;;;;13.60;7.03;;;;;;;7.72;55.23;95357.81;5053555;28;20627;-64
2022/03/27 03:38:22;;;;;;;10.73;6.33;;;;;;;7.54;55.81;95350.47;5053766;28;20360;-61
2022/03/27 03:40:47;;;;;;;15.07;7.13;;;;;;;7.60;55.52;95360.19;5053064;28;20288;-62
2022/03/27 03:43:13;;;;;;;13.70;6.83;;;;;;;7.79;55.49;95380.13;5053106;28;20206;-62
2022/03/27 03:45:39;;;;;;;17.07;7.47;;;;;;;7.62;55.94;95360.91;5053236;28;20213;-64
2022/03/27 03:48:05;;;;;;;12.63;6.53;;;;;;;7.68;55.65;95367.31;5053031;28;20178;-61
2022/03/27 03:50:35;;;;;;;12.43;6.83;;;;;;;7.78;55.81;95377.69;5053389;28;20206;-64
2022/03/27 03:53:00;;;;;;;14.60;6.70;;;;;;;7.72;56.11;95376.34;5053041;28;20295;-62
2022/03/27 03:55:26;;;;;;;17.97;7.03;;;;;;;7.70;56.34;95362.97;5053306;28;20691;-62
2022/03/27 03:57:52;;;;;;;18.47;7.60;;;;;;;7.73;56.72;95372.09;5052947;28;20185;-64
2022/03/27 04:00:18;;;;;;;19.23;8.27;;;;;;;7.54;56.92;95360.56;5053318;28;20206;-61
2022/03/27 04:02:44;;;;;;;18.17;7.83;;;;;;;7.53;56.91;95361.47;5052739;28;20263;-63
2022/03/27 04:05:09;;;;;;;20.40;7.90;;;;;;;7.54;56.64;95360.56;5053088;28;20679;-62
2022/03/27 04:07:35;;;;;;;16.00;7.53;;;;;;;7.62;56.59;95360.09;5034928;28;20182;-64
2022/03/27 04:10:00;;;;;;;12.90;7.13;;;;;;;7.61;55.79;95379.53;5053041;28;20255;-61
2022/03/27 04:12:26;;;;;;;18.83;7.57;;;;;;;7.64;56.70;95392.00;5051954;28;20569;-62
2022/03/27 04:14:51;;;;;;;20.60;7.93;;;;;;;7.73;56.34;95385.56;5052789;28;20262;-61
2022/03/27 04:17:17;;;;;;;13.10;6.97;;;;;;;7.77;57.39;95389.53;5052403;28;20178;-60
2022/03/27 04:19:42;;;;;;;16.90;7.00;;;;;;;7.79;56.29;95395.31;5052179;28;20208;-65
2022/03/27 04:22:08;;;;;;;19.37;7.73;;;;;;;7.82;56.22;95399.38;5052192;28;20174;-65
2022/03/27 04:24:33;;;;;;;15.53;7.23;;;;;;;7.78;56.55;95390.34;5052686;28;20197;-62
2022/03/27 04:26:59;;;;;;;12.70;7.73;;;;;;;7.87;56.38;95398.19;5051094;28;20188;-64
2022/03/27 04:29:24;;;;;;;18.40;7.40;;;;;;;7.64;56.94;95401.31;5052494;28;20659;-61
2022/03/27 04:31:51;;;;;;;11.33;7.37;;;;;;;7.69;57.41;95386.66;5052372;28;20186;-64
2022/03/27 04:34:17;;;;;;;16.93;7.67;;;;;;;7.56;57.30;95394.19;5052356;28;20650;-64
2022/03/27 04:36:43;;;;;;;15.03;7.50;;;;;;;7.54;58.10;95396.00;5052104;28;20267;-62
2022/03/27 04:39:08;;;;;;;17.27;8.03;;;;;;;7.46;58.25;95399.88;5052141;28;20542;-60
2022/03/27 04:41:35;;;;;;;17.23;7.87;;;;;;;7.34;57.99;95390.50;5050678;28;20243;-65
2022/03/27 04:44:00;;;;;;;15.30;7.77;;;;;;;7.52;58.34;95413.00;5052133;28;20216;-64
2022/03/27 04:46:26;;;;;;;21.10;9.00;;;;;;;7.43;58.29;95411.00;5052125;28;20237;-62
2022/03/27 04:48:52;;;;;;;25.53;10.87;;;;;;;7.34;58.38;95419.16;5051902;28;20192;-64
2022/03/27 04:51:17;;;;;;;22.00;9.20;;;;;;;7.57;58.46;95412.72;5051647;28;20202;-65
2022/03/27 04:53:43;;;;;;;18.30;8.47;;;;;;;7.58;58.12;95429.50;5050410;28;20597;-62
2022/03/27 04:56:08;;;;;;;19.43;10.03;;;;;;;7.71;57.71;95427.88;5050260;28;20321;-63
2022/03/27 04:58:37;;;;;;;22.90;9.80;;;;;;;7.83;57.46;95434.72;5051362;28;20181;-65
2022/03/27 05:01:03;;;;;;;17.77;8.17;;;;;;;7.79;58.28;95434.97;5052109;28;20243;-62
2022/03/27 05:03:29;;;;;;;22.20;8.47;;;;;;;7.87;57.42;95443.75;5051865;28;20640;-62
2022/03/27 05:05:55;;;;;;;20.73;8.40;;;;;;;7.74;58.33;95437.00;5051710;28;20212;-63
2022/03/27 05:08:20;;;;;;;24.73;8.43;;;;;;;7.55;58.14;95432.22;5051809;28;20571;-64
2022/03/27 05:10:46;;;;;;;23.40;9.30;;;;;;;7.68;57.97;95445.75;5051662;28;20706;-65
2022/03/27 05:13:14;;;;;;;18.37;9.20;;;;;;;7.81;57.39;95449.19;5051838;28;20181;-61
2022/03/27 05:15:40;;;;;;;20.90;8.30;;;;;;;8.02;56.15;95465.56;5051396;28;20602;-60
2022/03/27 05:18:05;;;;;;;20.47;10.97;;;;;;;7.82;55.26;95470.25;5050155;28;20216;-62
2022/03/27 05:20:31;;;;;;;25.70;10.33;;;;;;;7.76;55.85;95473.16;5051214;28;20205;-65
2022/03/27 05:22:59;;;;;;;24.10;8.63;;;;;;;7.67;56.59;95471.97;5051402;28;20174;-63
2022/03/27 05:25:25;;;;;;;18.00;9.10;;;;;;;7.79;55.46;95475.47;5050834;28;20209;-61
2022/03/27 05:27:57;;;;;;;16.67;7.43;;;;;;;7.94;54.84;95475.34;5051390;28;20528;-63
2022/03/27 05:30:25;;;;;;;15.50;7.80;;;;;;;8.23;52.24;95497.16;5051732;28;20217;-63
2022/03/27 05:32:53;;;;;;;19.67;8.23;;;;;;;8.19;53.41;95488.13;5049855;28;20208;-60
2022/03/27 05:35:19;;;;;;;16.80;8.47;;;;;;;7.86;54.29;95482.59;5050297;28;20717;-63
2022/03/27 05:37:46;;;;;;;18.20;7.47;;;;;;;7.88;54.46;95485.06;5051220;28;20181;-65
2022/03/27 05:40:20;;;;;;;17.97;8.23;;;;;;;8.03;53.60;95495.06;5051629;28;20209;-63
2022/03/27 05:42:47;;;;;;;18.20;7.80;;;;;;;8.38;52.78;95488.63;5051303;28;20166;-60
2022/03/27 05:45:13;;;;;;;21.47;8.20;;;;;;;8.66;52.42;95504.63;5051667;28;20736;-61
2022/03/27 05:47:42;;;;;;;18.33;8.03;;;;;;;8.72;51.94;95505.06;5049988;28;20182;-61
2022/03/27 05:50:10;;;;;;;13.53;7.23;;;;;;;8.66;51.01;95514.78;5051623;28;20255;-64
2022/03/27 05:52:35;;;;;;;16.03;7.40;;;;;;;8.70;51.12;95511.13;5051685;28;20201;-61
2022/03/27 05:55:01;;;;;;;21.07;8.00;;;;;;;9.01;51.42;95515.84;5051688;28;20209;-61
2022/03/27 05:57:26;;;;;;;16.77;7.27;;;;;;;9.02;50.45;95502.28;5050128;28;20181;-60
2022/03/27 05:59:52;;;;;;;20.43;8.60;;;;;;;9.12;50.55;95508.38;5051373;28;20201;-63
2022/03/27 06:02:17;;;;;;;19.67;9.87;;;;;;;9.08;51.67;95502.69;5051030;28;20181;-61
2022/03/27 06:04:43;;;;;;;24.67;9.93;;;;;;;8.98;53.31;95490.72;5051289;28;20209;-65
2022/03/27 06:07:09;;;;;;;18.80;10.47;;;;;;;9.27;52.23;95504.84;5049794;28;20193;-64
2022/03/27 06:09:36;;;;;;;20.07;10.03;;;;;;;9.35;52.67;95502.63;5051384;28;20229;-64
2022/03/27 06:12:03;;;;;;;25.23;10.40;;;;;;;9.28;52.28;95497.13;5051049;28;20204;-64
2022/03/27 06:14:29;;;;;;;19.10;10.20;;;;;;;9.36;52.22;95491.53;5051216;28;20201;-65
2022/03/27 06:16:55;;;;;;;29.13;10.20;;;;;;;9.50;52.66;95506.66;5050721;28;20217;-60
2022/03/27 06:19:21;;;;;;;25.80;11.87;;;;;;;9.13;53.28;95505.72;5051408;28;20628;-61
2022/03/27 06:21:46;;;;;;;24.20;10.40;;;;;;;9.02;54.12;95502.28;5050803;28;20181;-61
2022/03/27 06:24:12;;;;;;;22.43;11.17;;;;;;;9.29;53.06;95508.09;5049647;28;20192;-62
2022/03/27 06:26:39;;;;;;;20.50;10.07;;;;;;;9.59;51.82;95511.13;5049754;28;20583;-65
2022/03/27 06:29:04;;;;;;;18.60;10.37;;;;;;;9.65;50.72;95510.72;5049393;28;20255;-62
2022/03/27 06:31:30;;;;;;;21.20;12.20;;;;;;;9.52;52.38;95494.66;5050512;28;20232;-63
2022/03/27 06:33:56;;;;;;;23.43;11.23;;;;;;;9.84;50.89;95512.81;5032966;28;20189;-62
2022/03/27 06:36:22;;;;;;;18.30;10.93;;;;;;;10.01;50.44;95515.84;5051009;28;20684;-64
2022/03/27 06:38:47;;;;;;;20.67;10.17;;;;;;;10.10;49.87;95524.56;5054392;28;20181;-62
2022/03/27 06:41:14;;;;;;;21.20;10.70;;;;;;;10.11;49.63;95514.31;5054106;28;20221;-61
2022/03/27 06:43:39;;;;;;;23.30;11.07;;;;;;;10.29;48.82;95529.19;5054121;28;20274;-63
2022/03/27 06:46:05;;;;;;;19.90;11.10;;;;;;;10.26;49.72;95522.59;5054291;28;20581;-64
2022/03/27 06:48:31;;;;;;;19.13;10.10;;;;;;;10.42;48.68;95529.97;5052764;28;20612;-60
2022/03/27 06:50:56;;;;;;;30.40;11.20;;;;;;;10.47;49.66;95536.34;5054072;28;20741;-62
2022/03/27 06:53:24;;;;;;;24.40;11.57;;;;;;;10.65;48.28;95544.41;5052658;28;20235;-63
2022/03/27 06:55:50;;;;;;;26.13;10.83;;;;;;;10.54;49.44;95536.75;5053851;28;20245;-62
2022/03/27 06:58:16;;;;;;;21.70;10.60;;;;;;;10.73;48.21;95549.75;5053813;28;20181;-61
2022/03/27 07:03:26;;;;;;;25.47;10.43;;;;;;;10.74;47.72;95546.31;5053758;28;20280;-62
2022/03/27 07:05:52;;;;;;;23.53;11.07;;;;;;;10.72;47.86;95545.59;5054091;28;20229;-65
2022/03/27 07:08:20;;;;;;;23.33;10.50;;;;;;;10.75;47.20;95550.47;5052408;28;20181;-62
2022/03/27 07:10:47;;;;;;;17.20;10.10;;;;;;;10.65;47.31;95560.47;5054006;28;20217;-62
2022/03/27 07:13:14;;;;;;;21.47;10.40;;;;;;;10.83;47.43;95553.28;5053433;28;20265;-63
2022/03/27 07:15:41;;;;;;;20.60;10.87;;;;;;;10.91;47.85;95563.72;5053598;28;20245;-61
2022/03/27 07:18:08;;;;;;;19.30;10.50;;;;;;;11.04;48.35;95548.38;5053654;28;20201;-60
2022/03/27 07:20:40;;;;;;;29.00;10.10;;;;;;;11.08;48.24;95540.44;5035656;28;20665;-59
2022/03/27 07:23:09;;;;;;;22.87;11.43;;;;;;;10.98;47.39;95549.66;5053174;28;20566;-59
2022/03/27 07:25:38;;;;;;;21.70;11.00;;;;;;;11.18;47.17;95536.28;5053360;28;20214;-59
2022/03/27 07:28:04;;;;;;;20.70;10.63;;;;;;;11.14;46.45;95564.59;5053528;28;20182;-62
2022/03/27 07:30:30;;;;;;;18.63;9.90;;;;;;;11.25;45.72;95562.91;5053923;28;20205;-63
2022/03/27 07:32:57;;;;;;;17.27;10.00;;;;;;;11.30;45.24;95552.38;5052655;28;20189;-60
2022/03/27 07:35:22;;;;;;;20.63;10.17;;;;;;;11.80;45.53;95554.59;5033735;28;20267;-61
2022/03/27 07:37:49;;;;;;;21.13;10.80;;;;;;;12.17;43.88;95562.81;5033320;28;20261;-60
2022/03/27 07:40:15;;;;;;;24.30;11.17;;;;;;;12.16;44.18;95556.09;5032096;28;20202;-60
2022/03/27 07:42:49;;;;;;;21.50;12.23;;;;;;;11.86;44.04;95556.66;5033243;28;20200;-60
2022/03/27 07:45:18;;;;;;;20.63;12.10;;;;;;;12.04;43.74;95562.13;5033555;28;20336;-60
2022/03/27 07:47:45;;;;;;;23.87;10.90;;;;;;;12.34;42.82;95567.44;5032283;28;20187;-60
2022/03/27 07:50:11;;;;;;;25.47;11.43;;;;;;;12.61;44.78;95544.88;5033424;28;20228;-61
2022/03/27 07:52:38;;;;;;;20.73;11.00;;;;;;;12.98;43.23;95561.47;5032902;28;20174;-61
2022/03/27 07:55:04;;;;;;;15.63;10.13;;;;;;;13.40;42.26;95559.78;5031180;28;20224;-61
2022/03/27 07:57:30;;;;;;;17.67;10.07;;;;;;;13.21;42.42;95563.00;5031065;28;20208;-64
2022/03/27 07:59:56;;;;;;;21.33;11.93;;;;;;;13.25;42.06;95559.28;5033373;28;20208;-61
2022/03/27 08:02:22;;;;;;;17.40;10.60;;;;;;;13.38;42.06;95554.81;5031051;28;20675;-66
2022/03/27 08:04:48;;;;;;;20.77;10.63;;;;;;;13.55;40.81;95550.06;5031653;28;20210;-62
2022/03/27 08:07:14;;;;;;;19.98;10.35;;;;;;;13.44;40.78;95558.59;5031567;28;20236;-60
2022/03/27 08:09:41;;;;;;;23.10;10.52;;;;;;;13.89;41.04;95549.72;5033054;28;20214;-62
2022/03/27 08:12:08;;;;;;;20.95;11.10;;;;;;;13.74;40.63;95550.16;5032575;28;20187;-61
2022/03/27 08:14:38;;;;;;;17.92;10.65;;;;;;;14.06;40.60;95536.31;5032925;28;20250;-61
2022/03/27 08:17:04;;;;;;;23.63;10.60;;;;;;;14.11;39.88;95559.75;5031017;28;20271;-60
2022/03/27 08:19:30;;;;;;;18.85;11.63;;;;;;;14.30;39.84;95541.94;5032436;28;20202;-60
2022/03/27 08:21:56;;;;;;;18.00;10.50;;;;;;;14.69;39.40;95559.94;5032666;28;20189;-64
2022/03/27 08:24:22;;;;;;;21.52;10.85;;;;;;;14.65;39.62;95544.03;5032479;28;20255;-60
2022/03/27 08:26:57;;;;;;;15.35;9.52;;;;;;;14.60;36.59;95556.44;5032903;28;20186;-62
2022/03/27 08:29:29;;;;;;;21.85;9.57;;;;;;;14.55;35.41;95550.88;5047765;28;20640;-61
2022/03/27 08:31:56;;;;;;;14.25;9.02;;;;;;;14.70;34.12;95552.16;5032366;28;20193;-61
2022/03/27 08:34:25;;;;;;;19.77;9.60;;;;;;;14.73;34.01;95551.88;5032708;28;20174;-61
2022/03/27 08:36:50;;;;;;;18.33;9.50;;;;;;;14.77;33.20;95540.41;5031281;28;20311;-62
2022/03/27 08:39:18;;;;;;;22.90;11.48;;;;;;;14.84;33.48;95538.94;5032097;28;20641;-63
2022/03/27 08:41:46;;;;;;;15.70;9.60;;;;;;;15.14;33.15;95536.25;5031950;28;20265;-62
2022/03/27 08:44:14;;;;;;;17.58;10.10;;;;;;;14.95;32.71;95526.00;5032404;28;20171;-61
2022/03/27 08:46:42;;;;;;;18.50;9.85;;;;;;;14.93;32.52;95521.97;5032201;28;20188;-61
2022/03/27 08:49:14;;;;;;;17.50;9.47;;;;;;;15.06;32.47;95513.06;5031969;28;20197;-60
2022/03/27 08:51:46;;;;;;;13.63;9.18;;;;;;;15.35;32.50;95514.78;5030669;28;20229;-60
2022/03/27 08:54:16;;;;;;;18.23;9.95;;;;;;;15.59;32.14;95502.38;5030674;28;20628;-60
2022/03/27 08:56:50;;;;;;;17.65;9.68;;;;;;;16.01;32.01;95500.19;5032089;28;20202;-59
2022/03/27 08:59:17;;;;;;;17.33;9.15;;;;;;;16.32;31.58;95515.13;5030327;28;20190;-60
2022/03/27 09:01:43;;;;;;;19.48;9.73;;;;;;;15.95;31.29;95506.69;5031845;28;20194;-62
2022/03/27 09:04:11;;;;;;;14.13;8.77;;;;;;;16.28;31.28;95495.84;5031883;28;20534;-63
2022/03/27 09:06:37;;;;;;;18.02;9.60;;;;;;;16.17;31.33;95490.91;5032216;28;20191;-65
2022/03/27 09:09:02;;;;;;;18.52;9.90;;;;;;;16.92;30.96;95500.84;5032042;28;20181;-65
2022/03/27 09:11:30;;;;;;;19.45;11.73;;;;;;;16.57;29.12;95488.81;5031839;28;20178;-61
2022/03/27 09:13:56;;;;;;;24.95;11.50;;;;;;;16.55;29.40;95487.34;5032302;28;20674;-61
2022/03/27 09:16:22;;;;;;;22.40;11.40;;;;;;;16.59;29.49;95479.22;5031792;28;20289;-65
2022/03/27 09:18:58;;;;;;;21.23;11.52;;;;;;;16.90;28.99;95479.66;5030571;28;20185;-61
2022/03/27 09:21:29;;;;;;;25.30;10.98;;;;;;;16.80;29.04;95458.38;5031998;28;20593;-60
2022/03/27 09:23:57;;;;;;;21.45;11.20;;;;;;;17.45;28.90;95470.72;5031778;28;20285;-60
2022/03/27 09:26:22;;;;;;;16.27;10.43;;;;;;;16.94;28.72;95457.84;5031674;28;20201;-61
2022/03/27 09:28:52;;;;;;;20.13;11.02;;;;;;;16.86;28.86;95451.84;5031933;28;20182;-61
2022/03/27 09:31:18;;;;;;;20.35;10.38;;;;;;;16.68;28.59;95459.56;5032014;28;20573;-60
2022/03/27 09:33:48;;;;;;;18.75;10.20;;;;;;;16.94;28.41;95451.91;5031510;28;20255;-64
2022/03/27 09:36:32;;;;;;;20.73;10.68;;;;;;;17.13;28.30;95447.38;5031633;28;20222;-61
2022/03/27 09:39:04;;;;;;;22.00;10.77;;;;;;;17.63;27.95;95447.56;5031454;28;20600;-63
2022/03/27 09:41:48;;;;;;;21.42;10.88;;;;;;;17.36;27.93;95445.13;5030086;28;20742;-66
2022/03/27 09:44:19;;;;;;;19.70;11.35;;;;;;;17.46;27.71;95446.63;5031645;28;20540;-60
2022/03/27 09:46:52;;;;;;;23.20;10.82;;;;;;;17.63;27.20;95433.91;5031536;28;20182;-63
2022/03/27 09:49:20;;;;;;;21.60;11.10;;;;;;;17.76;27.26;95432.50;5032012;28;20182;-60
2022/03/27 09:51:52;;;;;;;21.67;11.35;;;;;;;18.43;26.27;95427.28;5031382;28;20201;-63
2022/03/27 09:54:18;;;;;;;17.58;10.85;;;;;;;18.46;26.37;95413.28;5031526;28;20201;-64
2022/03/27 09:56:50;;;;;;;19.58;10.85;;;;;;;18.42;26.16;95425.63;5031528;28;20202;-65
2022/03/27 09:59:46;;;;;;;21.45;10.30;;;;;;;18.93;25.87;95403.94;5031242;28;20297;-63
2022/03/27 10:02:24;;;;;;;17.73;10.90;;;;;;;18.46;25.69;95400.41;5019578;28;20186;-64
2022/03/27 10:04:52;;;;;;;20.83;10.50;;;;;;;18.95;25.84;95391.72;5031617;28;20205;-62
2022/03/27 10:07:23;;;;;;;17.63;10.18;;;;;;;19.49;24.65;95387.63;5031697;28;20240;-64
2022/03/27 10:09:49;;;;;;;21.42;9.90;;;;;;;19.08;24.88;95394.59;5031602;28;20194;-60
2022/03/27 10:12:15;;;;;;;19.50;10.07;;;;;;;19.46;25.22;95390.53;5050004;28;20190;-60
2022/03/27 10:14:42;;;;;;;20.10;10.02;;;;;;;18.73;24.65;95366.59;5033998;28;20229;-60
2022/03/27 10:17:09;;;;;;;14.43;9.27;;;;;;;18.96;24.87;95374.47;5035058;28;20355;-60
2022/03/27 10:19:43;;;;;;;22.02;9.52;;;;;;;18.77;24.61;95362.75;5035307;28;20566;-63
2022/03/27 10:22:12;;;;;;;26.88;9.88;;;;;;;18.51;24.06;95361.28;5034951;28;20170;-62
2022/03/27 10:24:44;;;;;;;15.90;8.90;;;;;;;18.61;23.94;95343.91;5033164;28;20194;-61
2022/03/27 10:27:10;;;;;;;18.67;9.13;;;;;;;18.64;23.92;95352.13;5049490;28;20713;-65
2022/03/27 10:29:39;;;;;;;18.15;8.85;;;;;;;18.69;24.18;95349.06;5035071;28;20221;-61
2022/03/27 10:32:10;;;;;;;13.88;9.20;;;;;;;18.86;24.33;95330.03;5034512;28;20702;-64
2022/03/27 10:35:01;;;;;;;15.80;8.40;;;;;;;19.37;23.74;95339.94;5035275;28;20197;-64
2022/03/27 10:37:50;;;;;;;15.55;8.18;;;;;;;18.90;23.80;95323.59;5028017;28;20579;-63
2022/03/27 10:40:26;;;;;;;16.20;8.18;;;;;;;19.14;23.69;95321.78;5034812;28;20194;-59
2022/03/27 10:43:00;;;;;;;13.27;7.38;;;;;;;19.16;23.63;95332.72;5033446;28;20190;-59
2022/03/27 10:45:26;;;;;;;13.88;8.60;;;;;;;19.49;23.01;95317.16;5035120;28;20301;-60
2022/03/27 10:48:18;;;;;;;16.80;8.55;;;;;;;19.61;22.89;95321.78;5034823;28;20213;-63
2022/03/27 10:50:45;;;;;;;12.23;7.70;;;;;;;19.79;22.68;95312.03;5033277;28;20245;-62
2022/03/27 10:53:11;;;;;;;12.85;8.25;;;;;;;19.42;22.89;95301.56;5034225;28;20186;-60
2022/03/27 10:55:48;;;;;;;11.38;7.50;;;;;;;20.19;22.73;95298.09;5035102;28;20308;-64
2022/03/27 10:58:30;;;;;;;16.30;7.70;;;;;;;20.52;21.99;95291.66;5032928;28;20181;-60
2022/03/27 11:01:04;;;;;;;12.90;7.82;;;;;;;20.07;21.95;95286.53;5034266;28;20233;-60
2022/03/27 11:03:51;;;;;;;14.35;7.32;;;;;;;21.21;21.90;95284.56;5032739;28;20628;-60
2022/03/27 11:06:31;;;;;;;12.77;7.13;;;;;;;21.02;22.13;95278.16;5034529;28;20202;-64
2022/03/27 11:08:59;;;;;;;14.38;8.80;;;;;;;20.63;21.69;95257.66;5032878;28;20182;-62
2022/03/27 11:11:33;;;;;;;16.38;8.25;;;;;;;20.67;21.83;95268.44;5034177;28;20281;-61
2022/03/27 11:13:59;;;;;;;17.40;7.90;;;;;;;21.31;22.53;95260.00;5034213;28;20178;-60
2022/03/27 11:16:24;;;;;;;13.75;7.75;;;;;;;21.50;20.99;95256.88;5033665;28;20210;-64
2022/03/27 11:18:50;;;;;;;14.57;8.40;;;;;;;20.91;21.25;95258.66;5033836;28;20188;-61
2022/03/27 11:21:27;;;;;;;12.73;8.57;;;;;;;20.45;21.64;95256.38;5034133;28;20225;-64
2022/03/27 11:24:20;;;;;;;11.43;7.85;;;;;;;20.84;22.74;95244.06;5034065;28;20196;-62
2022/03/27 11:26:47;;;;;;;18.40;7.78;;;;;;;21.01;21.45;95247.28;5030502;28;20765;-63
2022/03/27 11:29:22;;;;;;;17.02;7.53;;;;;;;21.54;22.07;95246.94;5034029;28;20256;-60
2022/03/27 11:32:08;;;;;;;12.18;7.18;;;;;;;21.33;20.38;95232.16;5040295;23;20232;-64
2022/03/27 11:34:38;;;;;;;12.07;7.57;;;;;;;21.79;20.47;95224.94;5033401;28;20207;-59